createdAt,value
2017-06-09T05:01:43.348Z,11528
2017-06-09T05:02:43.051Z,11832
2017-06-09T05:03:43.345Z,11640
2017-06-09T05:04:43.346Z,12064
2017-06-09T05:05:43.344Z,12416
2017-06-09T05:06:43.079Z,12640
2017-06-09T05:07:43.034Z,12864
2017-06-09T05:08:42.722Z,12512
2017-06-09T05:09:42.716Z,12320
2017-06-09T05:10:43.021Z,12896
2017-06-09T05:11:43.349Z,13120
2017-06-09T05:12:43.326Z,13248
2017-06-09T05:13:42.719Z,13216
2017-06-09T05:14:43.330Z,13440
2017-06-09T05:15:43.015Z,13984
2017-06-09T05:16:43.322Z,14560
2017-06-09T05:17:43.015Z,14752
2017-06-09T05:18:43.012Z,15392
2017-06-09T05:19:43.322Z,16288
2017-06-09T05:20:43.010Z,16128
2017-06-09T05:21:43.320Z,15616
2017-06-09T05:22:43.010Z,16000
2017-06-09T05:23:43.009Z,17024
2017-06-09T05:24:43.010Z,17376
2017-06-09T05:25:42.702Z,17056
2017-06-09T05:26:43.310Z,17888
2017-06-09T05:27:43.308Z,18432
2017-06-09T05:28:43.309Z,18912
2017-06-09T05:29:43.007Z,19648
2017-06-09T05:30:43.002Z,19712
2017-06-09T05:31:43.309Z,20000
2017-06-09T05:32:43.347Z,19648
2017-06-09T05:33:43.006Z,19680
2017-06-09T05:34:42.395Z,19648
2017-06-09T05:35:43.318Z,20320
2017-06-09T05:36:43.316Z,20192
2017-06-09T05:37:43.006Z,20064
2017-06-09T05:38:42.702Z,18784
2017-06-09T05:39:43.007Z,19008
2017-06-09T05:40:43.011Z,19456
2017-06-09T05:41:43.013Z,20864
2017-06-09T05:42:43.009Z,21088
2017-06-09T05:43:42.710Z,21632
2017-06-09T05:44:42.708Z,21792
2017-06-09T05:45:43.012Z,18208
2017-06-09T05:46:43.319Z,19488
2017-06-09T05:47:43.329Z,19136
2017-06-09T05:48:43.325Z,17568
2017-06-09T05:49:43.326Z,21984
2017-06-09T05:50:43.054Z,20352
2017-06-09T05:51:43.327Z,23104
2017-06-09T05:52:43.029Z,21216
2017-06-09T05:53:43.026Z,18720
2017-06-09T05:54:43.334Z,20928
2017-06-09T05:55:43.023Z,20000
2017-06-09T05:56:43.029Z,22720
2017-06-09T05:57:43.030Z,22880
2017-06-09T05:58:43.030Z,22144
2017-06-09T05:59:43.033Z,20096
2017-06-09T06:00:43.034Z,21344
2017-06-09T06:01:42.734Z,22048
2017-06-09T06:02:43.038Z,24736
2017-06-09T06:03:43.344Z,27616
2017-06-09T06:04:43.343Z,27904
2017-06-09T06:05:43.048Z,27072
2017-06-09T06:06:43.043Z,26624
2017-06-09T06:07:43.048Z,31072
2017-06-09T06:08:43.351Z,30848
2017-06-09T06:09:43.353Z,28544
2017-06-09T06:10:43.357Z,31424
2017-06-09T06:11:43.393Z,33600
2017-06-09T06:12:43.358Z,32576
2017-06-09T06:13:43.360Z,32512
2017-06-09T06:14:43.364Z,30592
2017-06-09T06:15:43.060Z,31328
2017-06-09T06:16:43.370Z,32640
2017-06-09T06:17:43.369Z,32352
2017-06-09T06:18:43.373Z,33824
2017-06-09T06:19:43.074Z,34688
2017-06-09T06:20:43.376Z,35424
2017-06-09T06:21:43.378Z,34464
2017-06-09T06:22:43.385Z,35264
2017-06-09T06:23:42.779Z,35680
2017-06-09T06:24:43.084Z,35456
2017-06-09T06:25:43.087Z,34272
2017-06-09T06:26:43.089Z,32928
2017-06-09T06:27:43.097Z,31296
2017-06-09T06:28:43.092Z,34752
2017-06-09T06:29:42.795Z,34624
2017-06-09T06:30:43.409Z,34624
2017-06-09T06:31:43.418Z,33792
2017-06-09T06:32:43.411Z,34752
2017-06-09T06:33:43.413Z,34912
2017-06-09T06:34:43.417Z,35744
2017-06-09T06:35:43.107Z,35008
2017-06-09T06:36:43.424Z,35328
2017-06-09T06:37:43.111Z,36416
2017-06-09T06:38:43.426Z,36480
2017-06-09T06:39:43.118Z,35584
2017-06-09T06:40:43.122Z,33792
2017-06-09T06:41:43.441Z,32736
2017-06-09T06:42:43.126Z,32160
2017-06-09T06:43:43.430Z,32448
2017-06-09T06:44:42.823Z,31584
2017-06-09T06:45:43.143Z,29440
2017-06-09T06:46:43.443Z,30752
2017-06-09T06:47:43.441Z,34272
2017-06-09T06:48:43.449Z,33152
2017-06-09T06:49:43.443Z,31776
2017-06-09T06:50:43.445Z,31680
2017-06-09T06:51:42.836Z,31360
2017-06-09T06:52:43.449Z,30144
2017-06-09T06:53:42.841Z,31840
2017-06-09T06:54:43.151Z,32416
2017-06-09T06:55:43.151Z,32544
2017-06-09T06:56:43.452Z,33664
2017-06-09T06:57:43.151Z,34272
2017-06-09T06:58:43.462Z,33344
2017-06-09T06:59:43.154Z,32896
2017-06-09T07:00:43.151Z,32288
2017-06-09T07:01:43.458Z,33888
2017-06-09T07:02:43.454Z,31744
2017-06-09T07:03:43.459Z,27744
2017-06-09T07:04:42.544Z,20160
2017-06-09T07:05:43.463Z,13232
2017-06-09T07:06:43.153Z,9136
2017-06-09T07:07:43.471Z,9312
2017-06-09T07:08:43.150Z,7976
2017-06-09T07:09:43.159Z,9212
2017-06-09T07:10:43.159Z,8984
2017-06-09T07:11:43.157Z,9424
2017-06-09T07:12:43.469Z,9132
2017-06-09T07:13:43.158Z,9120
2017-06-09T07:14:43.461Z,8736
2017-06-09T07:15:43.464Z,9448
2017-06-09T07:16:43.459Z,9016
2017-06-09T07:17:43.152Z,8460
2017-06-09T07:18:43.457Z,8844
2017-06-09T07:19:43.154Z,8012
2017-06-09T07:20:43.190Z,8332
2017-06-09T07:21:43.155Z,7920
2017-06-09T07:22:43.153Z,8656
2017-06-09T07:23:43.461Z,8472
2017-06-09T07:24:43.456Z,7984
2017-06-09T07:25:42.846Z,6016
2017-06-09T07:26:43.454Z,7244
2017-06-09T07:27:42.840Z,5940
2017-06-09T07:28:43.152Z,5196
2017-06-09T07:29:43.152Z,8568
2017-06-09T07:30:43.451Z,6460
2017-06-09T07:31:43.143Z,6276
2017-06-09T07:32:43.149Z,5124
2017-06-09T07:33:43.451Z,5144
2017-06-09T07:34:43.185Z,5644
2017-06-09T07:35:43.143Z,7264
2017-06-09T07:36:43.141Z,7108
2017-06-09T07:37:43.153Z,5596
2017-06-09T07:38:43.450Z,5188
2017-06-09T07:39:43.187Z,5960
2017-06-09T07:40:43.449Z,5828
2017-06-09T07:41:42.832Z,4988
2017-06-09T07:42:43.443Z,5040
2017-06-09T07:43:43.137Z,4664
2017-06-09T07:44:43.441Z,4896
2017-06-09T07:45:43.439Z,5840
2017-06-09T07:46:43.436Z,6384
2017-06-09T07:47:43.164Z,5504
2017-06-09T07:48:43.432Z,4856
2017-06-09T07:49:43.433Z,4756
2017-06-09T07:50:43.440Z,4724
2017-06-09T07:51:43.429Z,4788
2017-06-09T07:52:43.428Z,4888
2017-06-09T07:53:43.427Z,5732
2017-06-09T07:54:43.129Z,6420
2017-06-09T07:55:43.429Z,7420
2017-06-09T07:56:43.427Z,7256
2017-06-09T07:57:43.117Z,7216
2017-06-09T07:58:43.421Z,7080
2017-06-09T07:59:43.426Z,7260
2017-06-09T08:00:43.423Z,6988
2017-06-09T08:01:42.819Z,6632
2017-06-09T08:02:43.110Z,6096
2017-06-09T08:03:43.453Z,5952
2017-06-09T08:04:43.415Z,6692
2017-06-09T08:05:43.410Z,6144
2017-06-09T08:06:43.412Z,5108
2017-06-09T08:07:43.407Z,4728
2017-06-09T08:08:43.106Z,4816
2017-06-09T08:09:42.490Z,4800
2017-06-09T08:10:43.405Z,4712
2017-06-09T08:11:43.101Z,4568
2017-06-09T08:12:43.401Z,4480
2017-06-09T08:13:43.399Z,4416
2017-06-09T08:14:43.100Z,4336
2017-06-09T08:15:43.399Z,4224
2017-06-09T08:16:43.396Z,4140
2017-06-09T08:17:42.788Z,4108
2017-06-09T08:18:43.396Z,4096
2017-06-09T08:19:43.088Z,4092
2017-06-09T08:20:43.087Z,4120
2017-06-09T08:21:43.389Z,4132
2017-06-09T08:22:43.087Z,4164
2017-06-09T08:23:43.089Z,4148
2017-06-09T08:24:42.771Z,4028
2017-06-09T08:25:43.380Z,3932
2017-06-09T08:26:42.771Z,3840
2017-06-09T08:27:43.076Z,3788
2017-06-09T08:28:43.376Z,3760
2017-06-09T08:29:43.072Z,3744
2017-06-09T08:30:43.374Z,3720
2017-06-09T08:31:43.372Z,3660
2017-06-09T08:32:43.071Z,3620
2017-06-09T08:33:43.063Z,3644
2017-06-09T08:34:43.058Z,3704
2017-06-09T08:35:43.366Z,3796
2017-06-09T08:36:43.361Z,3880
2017-06-09T08:37:42.751Z,3960
2017-06-09T08:38:43.365Z,4032
2017-06-09T08:39:43.355Z,4112
2017-06-09T08:40:43.355Z,4140
2017-06-09T08:41:42.748Z,4168
2017-06-09T08:42:43.353Z,4176
2017-06-09T08:43:43.345Z,4200
2017-06-09T08:44:43.046Z,4224
2017-06-09T08:45:43.041Z,4288
2017-06-09T08:46:43.346Z,4356
2017-06-09T08:47:43.340Z,4440
2017-06-09T08:48:43.340Z,4464
2017-06-09T08:49:43.336Z,4468
2017-06-09T08:50:43.337Z,4456
2017-06-09T08:51:43.038Z,4404
2017-06-09T08:52:43.335Z,4400
2017-06-09T08:53:43.325Z,4368
2017-06-09T08:54:43.326Z,4336
2017-06-09T08:55:43.321Z,4308
2017-06-09T08:56:43.326Z,4268
2017-06-09T08:57:43.325Z,4196
2017-06-09T08:58:43.322Z,4184
2017-06-09T08:59:43.010Z,4152
2017-06-09T09:00:43.315Z,4116
2017-06-09T09:01:43.003Z,4096
2017-06-09T09:02:43.309Z,4072
2017-06-09T09:03:43.310Z,4040
2017-06-09T09:04:43.303Z,4000
2017-06-09T09:05:43.303Z,3980
2017-06-09T09:06:42.995Z,3976
2017-06-09T09:07:43.300Z,3936
2017-06-09T09:08:43.293Z,3936
2017-06-09T09:09:43.295Z,3896
2017-06-09T09:10:42.995Z,3860
2017-06-09T09:11:43.289Z,3832
2017-06-09T09:12:42.978Z,3772
2017-06-09T09:13:43.283Z,3720
2017-06-09T09:14:43.280Z,3672
2017-06-09T09:15:43.008Z,3624
2017-06-09T09:16:43.275Z,3580
2017-06-09T09:17:42.971Z,3520
2017-06-09T09:18:43.276Z,3460
2017-06-09T09:19:43.320Z,3380
2017-06-09T09:20:43.275Z,3332
2017-06-09T09:21:42.653Z,3304
2017-06-09T09:22:43.271Z,3296
2017-06-09T09:23:43.261Z,3284
2017-06-09T09:24:43.258Z,3296
2017-06-09T09:25:42.953Z,3376
2017-06-09T09:26:43.253Z,3376
2017-06-09T09:27:43.254Z,3412
2017-06-09T09:28:42.946Z,3372
2017-06-09T09:29:42.950Z,3308
2017-06-09T09:30:43.244Z,3200
2017-06-09T09:31:42.938Z,3124
2017-06-09T09:32:43.243Z,3092
2017-06-09T09:33:43.240Z,3080
2017-06-09T09:34:43.237Z,3076
2017-06-09T09:35:42.929Z,3044
2017-06-09T09:36:43.237Z,3020
2017-06-09T09:37:42.620Z,3012
2017-06-09T09:38:43.227Z,3036
2017-06-09T09:39:42.921Z,3056
2017-06-09T09:40:43.224Z,3052
2017-06-09T09:41:42.918Z,3040
2017-06-09T09:42:42.915Z,3028
2017-06-09T09:43:43.214Z,3032
2017-06-09T09:44:42.646Z,3036
2017-06-09T09:45:43.214Z,3076
2017-06-09T09:46:43.211Z,3108
2017-06-09T09:47:43.207Z,3152
2017-06-09T09:48:43.204Z,3220
2017-06-09T09:49:43.205Z,3288
2017-06-09T09:50:43.203Z,3340
2017-06-09T09:51:42.901Z,3392
2017-06-09T09:52:42.886Z,3436
2017-06-09T09:53:43.190Z,3468
2017-06-09T09:54:43.186Z,3516
2017-06-09T09:55:43.185Z,3592
2017-06-09T09:56:43.185Z,3660
2017-06-09T09:57:42.880Z,3688
2017-06-09T09:58:43.178Z,3696
2017-06-09T09:59:43.262Z,3716
2017-06-09T10:00:42.866Z,3748
2017-06-09T10:01:42.561Z,3780
2017-06-09T10:02:42.864Z,3824
2017-06-09T10:03:43.170Z,3876
2017-06-09T10:04:43.164Z,3904
2017-06-09T10:05:42.855Z,3924
2017-06-09T10:06:42.548Z,3964
2017-06-09T10:07:43.155Z,4016
2017-06-09T10:08:43.156Z,4040
2017-06-09T10:09:42.860Z,4056
2017-06-09T10:10:42.844Z,4080
2017-06-09T10:11:43.143Z,4092
2017-06-09T10:12:43.143Z,4068
2017-06-09T10:13:43.143Z,4040
2017-06-09T10:14:43.188Z,3952
2017-06-09T10:15:42.831Z,3896
2017-06-09T10:16:43.130Z,3888
2017-06-09T10:17:42.828Z,3904
2017-06-09T10:18:42.822Z,3940
2017-06-09T10:19:43.126Z,3972
2017-06-09T10:20:42.519Z,3980
2017-06-09T10:21:42.509Z,3984
2017-06-09T10:22:42.810Z,3984
2017-06-09T10:23:42.810Z,3980
2017-06-09T10:24:43.114Z,3972
2017-06-09T10:25:43.116Z,3944
2017-06-09T10:26:42.500Z,3916
2017-06-09T10:27:43.104Z,3924
2017-06-09T10:28:42.803Z,3936
2017-06-09T10:29:43.147Z,3940
2017-06-09T10:30:42.491Z,3972
2017-06-09T10:31:43.095Z,3992
2017-06-09T10:32:43.093Z,4040
2017-06-09T10:33:43.087Z,4180
2017-06-09T10:34:42.781Z,4272
2017-06-09T10:35:42.790Z,4344
2017-06-09T10:36:42.775Z,4360
2017-06-09T10:37:43.081Z,4420
2017-06-09T10:38:42.772Z,4440
2017-06-09T10:39:43.074Z,4476
2017-06-09T10:40:42.767Z,4484
2017-06-09T10:41:43.072Z,4540
2017-06-09T10:42:43.065Z,4552
2017-06-09T10:43:42.762Z,4572
2017-06-09T10:44:43.062Z,4584
2017-06-09T10:45:43.063Z,4620
2017-06-09T10:46:42.751Z,4616
2017-06-09T10:47:42.751Z,4636
2017-06-09T10:48:42.752Z,4660
2017-06-09T10:49:43.049Z,4668
2017-06-09T10:50:43.050Z,4672
2017-06-09T10:51:43.043Z,4672
2017-06-09T10:52:43.042Z,4676
2017-06-09T10:53:42.735Z,4688
2017-06-09T10:54:42.736Z,4692
2017-06-09T10:55:43.039Z,4688
2017-06-09T10:56:43.033Z,4688
2017-06-09T10:57:42.727Z,4664
2017-06-09T10:58:43.028Z,4628
2017-06-09T10:59:43.025Z,4620
2017-06-09T11:00:43.028Z,4588
2017-06-09T11:01:43.024Z,4596
2017-06-09T11:02:43.026Z,4604
2017-06-09T11:03:43.019Z,4576
2017-06-09T11:04:43.021Z,4560
2017-06-09T11:05:43.015Z,4552
2017-06-09T11:06:42.704Z,4532
2017-06-09T11:07:42.705Z,4524
2017-06-09T11:08:42.697Z,4488
2017-06-09T11:09:43.004Z,4476
2017-06-09T11:10:43.009Z,4428
2017-06-09T11:11:43.001Z,4404
2017-06-09T11:12:43.005Z,4400
2017-06-09T11:13:42.996Z,4416
2017-06-09T11:14:42.384Z,4424
2017-06-09T11:15:42.380Z,4468
2017-06-09T11:16:42.683Z,4496
2017-06-09T11:17:42.983Z,4528
2017-06-09T11:18:42.987Z,4544
2017-06-09T11:19:42.679Z,4580
2017-06-09T11:20:42.370Z,4604
2017-06-09T11:21:42.983Z,4616
2017-06-09T11:22:42.978Z,4632
2017-06-09T11:23:42.672Z,4604
2017-06-09T11:24:42.667Z,4628
2017-06-09T11:25:42.406Z,4624
2017-06-09T11:26:42.968Z,4648
2017-06-09T11:27:42.355Z,4620
2017-06-09T11:28:42.961Z,4656
2017-06-09T11:29:42.042Z,4672
2017-06-09T11:30:42.957Z,4676
2017-06-09T11:31:42.951Z,4692
2017-06-09T11:32:42.954Z,4760
2017-06-09T11:33:42.640Z,4744
2017-06-09T11:34:42.641Z,4680
2017-06-09T11:35:43.142Z,4676
2017-06-09T11:36:42.021Z,4620
2017-06-09T11:37:42.633Z,4604
2017-06-09T11:38:42.954Z,4588
2017-06-09T11:39:42.937Z,4564
2017-06-09T11:40:42.932Z,4520
2017-06-09T11:41:42.626Z,4456
2017-06-09T11:42:42.926Z,4448
2017-06-09T11:43:42.924Z,4408
2017-06-09T11:44:42.312Z,4360
2017-06-09T11:45:42.615Z,4352
2017-06-09T11:46:42.914Z,4368
2017-06-09T11:47:42.306Z,4380
2017-06-09T11:48:42.914Z,4384
2017-06-09T11:49:42.610Z,4400
2017-06-09T11:50:42.606Z,4440
2017-06-09T11:51:42.910Z,4420
2017-06-09T11:52:42.907Z,4372
2017-06-09T11:53:42.294Z,4384
2017-06-09T11:54:42.902Z,4476
2017-06-09T11:55:42.619Z,4504
2017-06-09T11:56:42.594Z,4552
2017-06-09T11:57:42.592Z,4620
2017-06-09T11:58:42.588Z,4596
2017-06-09T11:59:42.278Z,4584
2017-06-09T12:00:42.885Z,4576
2017-06-09T12:01:42.581Z,4604
2017-06-09T12:02:42.272Z,4576
2017-06-09T12:03:41.964Z,4512
2017-06-09T12:04:42.577Z,4412
2017-06-09T12:05:42.315Z,4356
2017-06-09T12:06:42.874Z,4316
2017-06-09T12:07:42.263Z,4312
2017-06-09T12:08:42.869Z,4304
2017-06-09T12:09:42.870Z,4324
2017-06-09T12:10:42.561Z,4304
2017-06-09T12:11:42.559Z,4284
2017-06-09T12:12:42.555Z,4360
2017-06-09T12:13:42.252Z,4340
2017-06-09T12:14:42.553Z,4348
2017-06-09T12:15:42.551Z,4336
2017-06-09T12:16:42.853Z,4280
2017-06-09T12:17:42.852Z,4184
2017-06-09T12:18:42.546Z,4064
2017-06-09T12:19:42.546Z,3908
2017-06-09T12:20:42.235Z,3760
2017-06-09T12:21:42.535Z,3600
2017-06-09T12:22:42.842Z,3432
2017-06-09T12:23:42.534Z,3208
2017-06-09T12:24:42.531Z,3016
2017-06-09T12:25:42.528Z,2880
2017-06-09T12:26:42.529Z,2788
2017-06-09T12:27:42.524Z,2744
2017-06-09T12:28:42.519Z,2664
2017-06-09T12:29:42.218Z,2556
2017-06-09T12:30:42.517Z,2460
2017-06-09T12:31:42.512Z,2368
2017-06-09T12:32:42.819Z,2316
2017-06-09T12:33:42.510Z,2424
2017-06-09T12:34:42.204Z,2520
2017-06-09T12:35:42.811Z,2576
2017-06-09T12:36:42.806Z,2600
2017-06-09T12:37:42.195Z,2640
2017-06-09T12:38:42.198Z,2712
2017-06-09T12:39:42.811Z,2768
2017-06-09T12:40:42.519Z,2900
2017-06-09T12:41:42.493Z,2912
2017-06-09T12:42:42.791Z,2856
2017-06-09T12:43:42.484Z,2924
2017-06-09T12:44:42.482Z,2928
2017-06-09T12:45:42.784Z,2812
2017-06-09T12:46:42.478Z,2700
2017-06-09T12:47:42.779Z,2592
2017-06-09T12:48:42.780Z,2508
2017-06-09T12:49:42.778Z,2636
2017-06-09T12:50:42.777Z,2700
2017-06-09T12:51:42.470Z,2636
2017-06-09T12:52:42.461Z,2596
2017-06-09T12:53:42.463Z,2472
2017-06-09T12:54:42.763Z,2292
2017-06-09T12:55:42.760Z,2344
2017-06-09T12:56:42.447Z,2552
2017-06-09T12:57:42.450Z,2708
2017-06-09T12:58:42.448Z,2772
2017-06-09T12:59:42.445Z,2744
2017-06-09T13:00:42.497Z,2692
2017-06-09T13:01:42.751Z,2652
2017-06-09T13:02:42.742Z,2732
2017-06-09T13:03:42.741Z,2816
2017-06-09T13:04:42.734Z,2728
2017-06-09T13:05:42.427Z,2540
2017-06-09T13:06:42.429Z,2556
2017-06-09T13:07:42.437Z,2764
2017-06-09T13:08:42.726Z,3028
2017-06-09T13:09:42.420Z,3288
2017-06-09T13:10:42.420Z,3416
2017-06-09T13:11:42.413Z,3440
2017-06-09T13:12:42.412Z,3424
2017-06-09T13:13:42.715Z,3396
2017-06-09T13:14:42.102Z,3380
2017-06-09T13:15:42.410Z,3456
2017-06-09T13:16:42.405Z,3660
2017-06-09T13:17:42.407Z,4020
2017-06-09T13:18:42.703Z,4240
2017-06-09T13:19:42.399Z,4096
2017-06-09T13:20:41.778Z,3996
2017-06-09T13:21:42.389Z,4008
2017-06-09T13:22:42.691Z,3972
2017-06-09T13:23:42.723Z,3908
2017-06-09T13:24:42.381Z,3860
2017-06-09T13:25:42.381Z,3940
2017-06-09T13:26:42.375Z,4036
2017-06-09T13:27:42.682Z,4136
2017-06-09T13:28:42.370Z,4016
2017-06-09T13:29:42.369Z,3832
2017-06-09T13:30:42.367Z,3676
2017-06-09T13:31:42.059Z,3680
2017-06-09T13:32:42.365Z,3892
2017-06-09T13:33:42.664Z,3920
2017-06-09T13:34:42.687Z,3880
2017-06-09T13:35:42.657Z,3756
2017-06-09T13:36:42.666Z,3680
2017-06-09T13:37:42.660Z,3600
2017-06-09T13:38:42.349Z,3456
2017-06-09T13:39:42.346Z,3264
2017-06-09T13:40:42.646Z,3332
2017-06-09T13:41:42.642Z,3448
2017-06-09T13:42:42.034Z,3632
2017-06-09T13:43:42.338Z,3596
2017-06-09T13:44:42.336Z,3568
2017-06-09T13:45:42.329Z,3600
2017-06-09T13:46:42.335Z,3656
2017-06-09T13:47:42.327Z,3736
2017-06-09T13:48:42.020Z,3528
2017-06-09T13:49:42.630Z,3360
2017-06-09T13:50:42.319Z,3232
2017-06-09T13:51:42.620Z,3008
2017-06-09T13:52:42.626Z,2828
2017-06-09T13:53:42.002Z,2572
2017-06-09T13:54:42.306Z,2340
2017-06-09T13:55:42.306Z,2076
2017-06-09T13:56:42.303Z,1896
2017-06-09T13:57:42.304Z,1836
2017-06-09T13:58:42.605Z,2128
2017-06-09T13:59:42.604Z,2632
2017-06-09T14:00:42.293Z,2908
2017-06-09T14:05:37.503Z,2344
2017-06-09T14:06:37.496Z,2460
2017-06-09T14:07:37.207Z,2560
2017-06-09T14:08:37.499Z,2724
2017-06-09T14:09:37.201Z,2652
2017-06-09T14:10:37.199Z,2528
2017-06-09T14:11:37.498Z,2372
2017-06-09T14:12:37.196Z,2428
2017-06-09T14:13:37.203Z,2536
2017-06-09T14:14:37.191Z,2704
2017-06-09T14:15:37.507Z,2816
2017-06-09T14:16:37.504Z,2916
2017-06-09T14:17:36.892Z,2960
2017-06-09T14:18:37.702Z,2800
2017-06-09T14:19:37.503Z,2512
2017-06-09T14:20:36.861Z,2324
2017-06-09T14:21:37.182Z,2204
2017-06-09T14:22:37.166Z,2144
2017-06-09T14:23:37.475Z,2192
2017-06-09T14:24:37.145Z,2268
2017-06-09T14:25:37.146Z,2212
2017-06-09T14:26:37.142Z,2060
2017-06-09T14:27:37.446Z,1932
2017-06-09T14:28:37.442Z,1876
2017-06-09T14:29:37.137Z,1844
2017-06-09T14:30:37.439Z,1916
2017-06-09T14:31:37.434Z,2080
2017-06-09T14:32:37.434Z,2528
2017-06-09T14:33:37.437Z,2868
2017-06-09T14:34:37.431Z,2980
2017-06-09T14:35:37.429Z,2988
2017-06-09T14:36:37.427Z,2888
2017-06-09T14:37:37.423Z,2844
2017-06-09T14:38:37.114Z,2716
2017-06-09T14:39:36.804Z,2412
2017-06-09T14:40:37.424Z,2360
2017-06-09T14:41:37.411Z,2456
2017-06-09T14:42:37.407Z,2504
2017-06-09T14:43:37.097Z,2548
2017-06-09T14:44:37.099Z,2492
2017-06-09T14:45:37.397Z,2220
2017-06-09T14:46:37.694Z,1952
2017-06-09T14:50:30.010Z,1684
2017-06-09T14:51:00.564Z,1636
2017-06-09T14:52:00.564Z,1596
2017-06-09T14:53:00.246Z,1664
2017-06-09T14:54:00.551Z,1844
2017-06-09T14:55:00.246Z,2092
2017-06-09T14:56:00.266Z,2284
2017-06-09T14:57:00.242Z,2400
2017-06-09T14:58:00.242Z,2420
2017-06-09T14:59:00.538Z,2416
2017-06-09T15:00:00.230Z,2276
2017-06-09T15:01:00.224Z,2148
2017-06-09T15:02:00.525Z,2024
2017-06-09T15:02:59.913Z,1908
2017-06-09T15:04:00.217Z,1844
2017-06-09T15:05:00.222Z,1840
2017-06-09T15:06:00.515Z,1772
2017-06-09T15:07:00.212Z,1512
2017-06-09T15:08:00.206Z,1276
2017-06-09T15:09:00.206Z,1104
2017-06-09T15:10:00.509Z,1064
2017-06-09T15:11:00.205Z,1084
2017-06-09T15:12:00.504Z,1092
2017-06-09T15:13:00.188Z,1124
2017-06-09T15:14:00.189Z,1132
2017-06-09T15:15:00.504Z,1116
2017-06-09T15:16:00.492Z,1068
2017-06-09T15:17:00.494Z,1020
2017-06-09T15:18:00.179Z,980
2017-06-09T15:19:00.176Z,948
2017-06-09T15:20:00.177Z,984
2017-06-09T15:21:00.482Z,1088
2017-06-09T15:22:00.479Z,1180
2017-06-09T15:23:00.473Z,1224
2017-06-09T15:24:00.471Z,1204
2017-06-09T15:25:00.168Z,1188
2017-06-09T15:26:00.462Z,1176
2017-06-09T15:27:00.465Z,1168
2017-06-09T15:28:00.459Z,1092
2017-06-09T15:29:00.147Z,1024
2017-06-09T15:30:00.448Z,1032
2017-06-09T15:31:00.453Z,1028
2017-06-09T15:32:00.145Z,1028
2017-06-09T15:33:00.136Z,1092
2017-06-09T15:34:00.131Z,1168
2017-06-09T15:35:00.436Z,1284
2017-06-09T15:36:00.431Z,1416
2017-06-09T15:37:00.433Z,1408
2017-06-09T15:38:00.442Z,1432
2017-06-09T15:39:00.119Z,1536
2017-06-09T15:40:00.120Z,1668
2017-06-09T15:40:59.807Z,1692
2017-06-09T15:42:00.114Z,1772
2017-06-09T15:43:00.411Z,1884
2017-06-09T15:44:00.408Z,1892
2017-06-09T15:45:00.100Z,1808
2017-06-09T15:46:00.406Z,1796
2017-06-09T15:47:00.096Z,1896
2017-06-09T15:47:59.481Z,2108
2017-06-09T15:49:00.396Z,1996
2017-06-09T15:50:00.397Z,1860
2017-06-09T15:51:00.087Z,1864
2017-06-09T15:52:00.389Z,2032
2017-06-09T15:53:00.384Z,2144
2017-06-09T15:54:00.400Z,2180
2017-06-09T15:55:00.385Z,2272
2017-06-09T15:55:59.768Z,2284
2017-06-09T15:57:00.070Z,2376
2017-06-09T15:58:00.076Z,2380
2017-06-09T15:59:00.065Z,2296
2017-06-09T15:59:59.758Z,2028
2017-06-09T16:01:00.057Z,1692
2017-06-09T16:02:00.067Z,1484
2017-06-09T16:03:00.368Z,1324
2017-06-09T16:04:00.353Z,1208
2017-06-09T16:05:00.352Z,1104
2017-06-09T16:06:00.350Z,1040
2017-06-09T16:07:00.347Z,956
2017-06-09T16:07:59.735Z,948
2017-06-09T16:09:00.036Z,976
2017-06-09T16:10:00.031Z,964
2017-06-09T16:11:00.032Z,932
2017-06-09T16:12:00.332Z,932
2017-06-09T16:13:00.026Z,964
2017-06-09T16:14:00.330Z,1020
2017-06-09T16:15:00.323Z,1024
2017-06-09T16:16:00.015Z,1008
2017-06-09T16:17:00.015Z,1016
2017-06-09T16:18:00.010Z,1104
2017-06-09T16:19:00.312Z,1196
2017-06-09T16:20:00.322Z,1196
2017-06-09T16:21:00.003Z,1312
2017-06-09T16:22:00.303Z,1340
2017-06-09T16:23:00.299Z,1356
2017-06-09T16:23:59.991Z,1448
2017-06-09T16:24:59.999Z,1504
2017-06-09T16:26:00.321Z,1560
2017-06-09T16:27:00.288Z,1564
2017-06-09T16:28:00.291Z,1456
2017-06-09T16:28:59.976Z,1332
2017-06-09T16:30:00.285Z,1248
2017-06-09T16:30:59.970Z,1124
2017-06-09T16:31:59.665Z,1028
2017-06-09T16:32:59.661Z,976
2017-06-09T16:33:59.965Z,932
2017-06-09T16:34:59.964Z,900
2017-06-09T16:35:59.959Z,872
2017-06-09T16:37:00.262Z,860
2017-06-09T16:38:00.273Z,852
2017-06-09T16:39:00.263Z,840
2017-06-09T16:39:59.952Z,832
2017-06-09T16:41:00.251Z,832
2017-06-09T16:41:59.945Z,844
2017-06-09T16:42:59.942Z,812
2017-06-09T16:43:59.632Z,764
2017-06-09T16:45:00.237Z,684
2017-06-09T16:45:59.927Z,656
2017-06-09T16:46:59.618Z,640
2017-06-09T16:48:00.233Z,628
2017-06-09T16:49:00.227Z,652
2017-06-09T16:50:00.227Z,708
2017-06-09T16:50:59.912Z,764
2017-06-09T16:52:00.222Z,964
2017-06-09T16:52:59.606Z,1104
2017-06-09T16:54:00.218Z,960
2017-06-09T16:55:00.209Z,1128
2017-06-09T16:56:00.205Z,1260
2017-06-09T16:57:00.206Z,1264
2017-06-09T16:58:00.205Z,1332
2017-06-09T16:59:00.205Z,1388
2017-06-09T16:59:59.899Z,1392
2017-06-09T17:00:59.582Z,1504
2017-06-09T17:02:00.182Z,1588
2017-06-09T17:03:00.190Z,1600
2017-06-09T17:03:59.888Z,1596
2017-06-09T17:04:59.875Z,1644
2017-06-09T17:06:00.179Z,1620
2017-06-09T17:06:59.872Z,1492
2017-06-09T17:07:59.871Z,1452
2017-06-09T17:08:59.868Z,1408
2017-06-09T17:10:00.173Z,1424
2017-06-09T17:11:00.166Z,1292
2017-06-09T17:11:59.859Z,1236
2017-06-09T17:13:00.157Z,1148
2017-06-09T17:14:00.159Z,1056
2017-06-09T17:14:59.852Z,964
2017-06-09T17:15:59.844Z,936
2017-06-09T17:17:00.146Z,892
2017-06-09T17:18:00.146Z,844
2017-06-09T17:18:59.838Z,796
2017-06-09T17:19:59.835Z,768
2017-06-09T17:21:00.135Z,728
2017-06-09T17:22:00.137Z,696
2017-06-09T17:23:00.126Z,688
2017-06-09T17:24:00.130Z,700
2017-06-09T17:25:00.125Z,680
2017-06-09T17:26:00.140Z,652
2017-06-09T17:27:00.119Z,632
2017-06-09T17:27:59.820Z,616
2017-06-09T17:28:59.817Z,608
2017-06-09T17:30:00.111Z,596
2017-06-09T17:31:00.104Z,612
2017-06-09T17:31:59.802Z,652
2017-06-09T17:33:00.106Z,668
2017-06-09T17:33:59.796Z,700
2017-06-09T17:34:59.792Z,712
2017-06-09T17:35:59.788Z,700
2017-06-09T17:37:00.091Z,732
2017-06-09T17:38:00.105Z,732
2017-06-09T17:39:00.094Z,760
2017-06-09T17:39:59.474Z,772
2017-06-09T17:40:59.465Z,768
2017-06-09T17:42:00.071Z,764
2017-06-09T17:43:00.076Z,760
2017-06-09T17:43:59.460Z,780
2017-06-09T17:45:00.071Z,792
2017-06-09T17:46:00.060Z,804
2017-06-09T17:47:00.058Z,828
2017-06-09T17:47:59.781Z,828
2017-06-09T17:49:00.261Z,816
2017-06-09T17:50:00.053Z,748
2017-06-09T17:51:00.049Z,660
2017-06-09T17:52:00.045Z,588
2017-06-09T17:52:59.742Z,540
2017-06-09T17:54:00.041Z,560
2017-06-09T17:55:00.034Z,620
2017-06-09T17:56:00.035Z,672
2017-06-09T17:57:00.027Z,696
2017-06-09T17:57:59.722Z,712
2017-06-09T17:59:00.027Z,720
2017-06-09T18:00:00.026Z,740
2017-06-09T18:01:00.027Z,744
2017-06-09T18:02:00.011Z,728
2017-06-09T18:03:00.016Z,696
2017-06-09T18:04:00.011Z,648
2017-06-09T18:04:59.702Z,568
2017-06-09T18:05:59.704Z,500
2017-06-09T18:06:59.693Z,452
2017-06-09T18:08:00.003Z,412
2017-06-09T18:08:59.991Z,404
2017-06-09T18:09:59.993Z,388
2017-06-09T18:10:59.690Z,384
2017-06-09T18:11:59.985Z,400
2017-06-09T18:12:59.988Z,416
2017-06-09T18:13:59.986Z,428
2017-06-09T18:14:59.986Z,436
2017-06-09T18:15:59.977Z,432
2017-06-09T18:16:59.971Z,432
2017-06-09T18:17:59.972Z,428
2017-06-09T18:18:59.967Z,420
2017-06-09T18:19:59.661Z,412
2017-06-09T18:20:59.962Z,416
2017-06-09T18:21:59.650Z,420
2017-06-09T18:22:59.949Z,432
2017-06-09T18:23:59.949Z,428
2017-06-09T18:24:59.946Z,420